sensor_id;sensor_type;location;lat;lon;timestamp;P1;durP1;ratioP1;P2;durP2;ratioP2
53549;SDS011;67273;52.914;-0.982;2023-06-19T00:00:09;4.80;;;3.67;;
53549;SDS011;67273;52.914;-0.982;2023-06-19T00:02:41;4.35;;;3.38;;
53549;SDS011;67273;52.914;-0.982;2023-06-19T00:05:07;4.85;;;3.72;;
53549;SDS011;67273;52.914;-0.982;2023-06-19T00:07:33;4.93;;;3.78;;
53549;SDS011;67273;52.914;-0.982;2023-06-19T00:09:59;4.80;;;3.53;;
53549;SDS011;67273;52.914;-0.982;2023-06-19T00:12:25;5.15;;;3.70;;
53549;SDS011;67273;52.914;-0.982;2023-06-19T00:14:52;5.75;;;3.35;;
53549;SDS011;67273;52.914;-0.982;2023-06-19T00:17:18;5.53;;;3.83;;
53549;SDS011;67273;52.914;-0.982;2023-06-19T00:19:43;4.32;;;3.70;;
53549;SDS011;67273;52.914;-0.982;2023-06-19T00:22:09;5.35;;;3.78;;
53549;SDS011;67273;52.914;-0.982;2023-06-19T00:24:35;4.55;;;3.70;;
53549;SDS011;67273;52.914;-0.982;2023-06-19T00:27:01;5.95;;;3.70;;
53549;SDS011;67273;52.914;-0.982;2023-06-19T00:29:27;5.15;;;3.65;;
53549;SDS011;67273;52.914;-0.982;2023-06-19T00:31:55;4.30;;;3.55;;
53549;SDS011;67273;52.914;-0.982;2023-06-19T00:34:20;5.18;;;3.85;;
53549;SDS011;67273;52.914;-0.982;2023-06-19T00:36:49;4.32;;;3.63;;
53549;SDS011;67273;52.914;-0.982;2023-06-19T00:39:15;5.53;;;3.70;;
53549;SDS011;67273;52.914;-0.982;2023-06-19T00:41:41;4.82;;;3.50;;
53549;SDS011;67273;52.914;-0.982;2023-06-19T00:44:08;4.97;;;3.78;;
53549;SDS011;67273;52.914;-0.982;2023-06-19T00:46:35;5.05;;;3.47;;
53549;SDS011;67273;52.914;-0.982;2023-06-19T00:49:04;4.55;;;3.67;;
53549;SDS011;67273;52.914;-0.982;2023-06-19T00:51:30;4.75;;;3.72;;
53549;SDS011;67273;52.914;-0.982;2023-06-19T00:53:56;4.22;;;3.53;;
53549;SDS011;67273;52.914;-0.982;2023-06-19T00:56:22;4.90;;;3.67;;
53549;SDS011;67273;52.914;-0.982;2023-06-19T00:58:49;5.65;;;3.63;;
53549;SDS011;67273;52.914;-0.982;2023-06-19T01:01:16;4.43;;;3.63;;
53549;SDS011;67273;52.914;-0.982;2023-06-19T01:03:41;4.35;;;3.70;;
53549;SDS011;67273;52.914;-0.982;2023-06-19T01:06:10;4.15;;;3.50;;
53549;SDS011;67273;52.914;-0.982;2023-06-19T01:08:42;4.03;;;3.50;;
53549;SDS011;67273;52.914;-0.982;2023-06-19T01:11:13;4.70;;;3.33;;
53549;SDS011;67273;52.914;-0.982;2023-06-19T01:13:44;6.10;;;3.60;;
53549;SDS011;67273;52.914;-0.982;2023-06-19T01:16:14;5.60;;;3.92;;
53549;SDS011;67273;52.914;-0.982;2023-06-19T01:18:41;4.15;;;3.00;;
53549;SDS011;67273;52.914;-0.982;2023-06-19T01:21:10;4.85;;;3.63;;
53549;SDS011;67273;52.914;-0.982;2023-06-19T01:23:38;4.05;;;3.30;;
53549;SDS011;67273;52.914;-0.982;2023-06-19T01:26:05;4.15;;;3.70;;
53549;SDS011;67273;52.914;-0.982;2023-06-19T01:28:32;4.85;;;3.67;;
53549;SDS011;67273;52.914;-0.982;2023-06-19T01:30:58;4.88;;;3.65;;
53549;SDS011;67273;52.914;-0.982;2023-06-19T01:33:27;4.70;;;3.63;;
53549;SDS011;67273;52.914;-0.982;2023-06-19T01:35:55;4.55;;;3.75;;
53549;SDS011;67273;52.914;-0.982;2023-06-19T01:38:22;4.95;;;3.47;;
53549;SDS011;67273;52.914;-0.982;2023-06-19T01:40:52;5.45;;;4.20;;
53549;SDS011;67273;52.914;-0.982;2023-06-19T01:43:20;4.18;;;3.75;;
53549;SDS011;67273;52.914;-0.982;2023-06-19T01:45:46;4.45;;;3.58;;
53549;SDS011;67273;52.914;-0.982;2023-06-19T01:48:13;4.30;;;3.50;;
53549;SDS011;67273;52.914;-0.982;2023-06-19T01:50:39;4.85;;;3.47;;
53549;SDS011;67273;52.914;-0.982;2023-06-19T01:53:05;4.72;;;3.63;;
53549;SDS011;67273;52.914;-0.982;2023-06-19T01:55:31;4.68;;;3.80;;
53549;SDS011;67273;52.914;-0.982;2023-06-19T01:57:58;4.20;;;3.47;;
53549;SDS011;67273;52.914;-0.982;2023-06-19T02:00:25;5.57;;;3.80;;
53549;SDS011;67273;52.914;-0.982;2023-06-19T02:02:57;4.55;;;3.47;;
53549;SDS011;67273;52.914;-0.982;2023-06-19T02:05:22;5.22;;;3.47;;
53549;SDS011;67273;52.914;-0.982;2023-06-19T02:07:48;4.95;;;4.05;;
53549;SDS011;67273;52.914;-0.982;2023-06-19T02:10:15;4.75;;;3.85;;
53549;SDS011;67273;52.914;-0.982;2023-06-19T02:12:41;4.60;;;3.72;;
53549;SDS011;67273;52.914;-0.982;2023-06-19T02:15:09;4.55;;;3.90;;
53549;SDS011;67273;52.914;-0.982;2023-06-19T02:17:35;4.63;;;3.95;;
53549;SDS011;67273;52.914;-0.982;2023-06-19T02:20:02;5.07;;;3.67;;
53549;SDS011;67273;52.914;-0.982;2023-06-19T02:22:31;4.63;;;3.78;;
53549;SDS011;67273;52.914;-0.982;2023-06-19T02:24:57;4.32;;;3.70;;
53549;SDS011;67273;52.914;-0.982;2023-06-19T02:27:23;5.20;;;4.07;;
53549;SDS011;67273;52.914;-0.982;2023-06-19T02:29:50;6.50;;;4.30;;
53549;SDS011;67273;52.914;-0.982;2023-06-19T02:32:18;6.93;;;4.30;;
53549;SDS011;67273;52.914;-0.982;2023-06-19T02:34:44;5.95;;;4.10;;
53549;SDS011;67273;52.914;-0.982;2023-06-19T02:37:10;7.00;;;4.18;;
53549;SDS011;67273;52.914;-0.982;2023-06-19T02:39:36;5.40;;;4.10;;
53549;SDS011;67273;52.914;-0.982;2023-06-19T02:42:02;5.32;;;4.22;;
53549;SDS011;67273;52.914;-0.982;2023-06-19T02:44:28;4.78;;;4.20;;
53549;SDS011;67273;52.914;-0.982;2023-06-19T02:46:53;4.75;;;4.22;;
53549;SDS011;67273;52.914;-0.982;2023-06-19T02:49:20;4.82;;;4.32;;
53549;SDS011;67273;52.914;-0.982;2023-06-19T02:51:46;5.88;;;4.50;;
53549;SDS011;67273;52.914;-0.982;2023-06-19T02:54:12;4.72;;;4.00;;
53549;SDS011;67273;52.914;-0.982;2023-06-19T02:56:38;4.55;;;3.85;;
53549;SDS011;67273;52.914;-0.982;2023-06-19T02:59:04;5.47;;;4.07;;
53549;SDS011;67273;52.914;-0.982;2023-06-19T03:01:29;5.20;;;4.38;;
53549;SDS011;67273;52.914;-0.982;2023-06-19T03:03:55;6.00;;;4.30;;
53549;SDS011;67273;52.914;-0.982;2023-06-19T03:06:22;5.18;;;4.43;;
53549;SDS011;67273;52.914;-0.982;2023-06-19T03:08:48;5.47;;;4.70;;
53549;SDS011;67273;52.914;-0.982;2023-06-19T03:11:14;6.00;;;4.63;;
53549;SDS011;67273;52.914;-0.982;2023-06-19T03:13:44;5.57;;;4.60;;
53549;SDS011;67273;52.914;-0.982;2023-06-19T03:16:16;5.60;;;4.55;;
53549;SDS011;67273;52.914;-0.982;2023-06-19T03:18:43;4.90;;;4.40;;
53549;SDS011;67273;52.914;-0.982;2023-06-19T03:21:14;5.78;;;5.18;;
53549;SDS011;67273;52.914;-0.982;2023-06-19T03:23:42;5.45;;;4.80;;
53549;SDS011;67273;52.914;-0.982;2023-06-19T03:26:12;6.43;;;5.03;;
53549;SDS011;67273;52.914;-0.982;2023-06-19T03:28:44;5.95;;;4.68;;
53549;SDS011;67273;52.914;-0.982;2023-06-19T03:31:11;5.85;;;4.97;;
53549;SDS011;67273;52.914;-0.982;2023-06-19T03:33:37;6.25;;;5.00;;
53549;SDS011;67273;52.914;-0.982;2023-06-19T03:36:03;5.95;;;4.90;;
53549;SDS011;67273;52.914;-0.982;2023-06-19T03:38:51;7.05;;;4.90;;
53549;SDS011;67273;52.914;-0.982;2023-06-19T03:41:26;5.60;;;4.88;;
53549;SDS011;67273;52.914;-0.982;2023-06-19T03:43:54;6.35;;;5.03;;
53549;SDS011;67273;52.914;-0.982;2023-06-19T03:46:22;6.50;;;5.30;;
53549;SDS011;67273;52.914;-0.982;2023-06-19T03:48:48;5.90;;;5.30;;
53549;SDS011;67273;52.914;-0.982;2023-06-19T03:51:14;7.95;;;5.88;;
53549;SDS011;67273;52.914;-0.982;2023-06-19T03:53:41;6.15;;;5.55;;
53549;SDS011;67273;52.914;-0.982;2023-06-19T03:56:10;6.97;;;5.10;;
53549;SDS011;67273;52.914;-0.982;2023-06-19T03:58:36;6.10;;;5.40;;
53549;SDS011;67273;52.914;-0.982;2023-06-19T04:01:02;6.07;;;5.13;;
53549;SDS011;67273;52.914;-0.982;2023-06-19T04:03:28;6.85;;;5.55;;
53549;SDS011;67273;52.914;-0.982;2023-06-19T04:05:54;6.07;;;5.22;;
53549;SDS011;67273;52.914;-0.982;2023-06-19T04:08:20;6.07;;;5.05;;
53549;SDS011;67273;52.914;-0.982;2023-06-19T04:10:47;7.47;;;5.55;;
53549;SDS011;67273;52.914;-0.982;2023-06-19T04:13:14;7.20;;;5.32;;
53549;SDS011;67273;52.914;-0.982;2023-06-19T04:15:41;6.50;;;5.78;;
53549;SDS011;67273;52.914;-0.982;2023-06-19T04:18:10;7.03;;;4.78;;
53549;SDS011;67273;52.914;-0.982;2023-06-19T04:20:37;6.10;;;4.70;;
53549;SDS011;67273;52.914;-0.982;2023-06-19T04:23:03;6.82;;;5.38;;
53549;SDS011;67273;52.914;-0.982;2023-06-19T04:25:29;5.97;;;4.80;;
53549;SDS011;67273;52.914;-0.982;2023-06-19T04:27:55;5.93;;;5.30;;
53549;SDS011;67273;52.914;-0.982;2023-06-19T04:30:22;6.10;;;5.45;;
53549;SDS011;67273;52.914;-0.982;2023-06-19T04:32:50;6.60;;;4.72;;
53549;SDS011;67273;52.914;-0.982;2023-06-19T04:35:18;6.82;;;5.18;;
53549;SDS011;67273;52.914;-0.982;2023-06-19T04:37:45;6.55;;;5.13;;
53549;SDS011;67273;52.914;-0.982;2023-06-19T04:40:13;6.50;;;5.10;;
53549;SDS011;67273;52.914;-0.982;2023-06-19T04:42:39;5.75;;;5.13;;
53549;SDS011;67273;52.914;-0.982;2023-06-19T04:45:05;7.05;;;5.57;;
53549;SDS011;67273;52.914;-0.982;2023-06-19T04:47:33;7.50;;;5.20;;
53549;SDS011;67273;52.914;-0.982;2023-06-19T04:49:59;6.38;;;5.05;;
53549;SDS011;67273;52.914;-0.982;2023-06-19T04:52:25;5.50;;;4.75;;
53549;SDS011;67273;52.914;-0.982;2023-06-19T04:54:51;6.10;;;5.50;;
53549;SDS011;67273;52.914;-0.982;2023-06-19T04:57:17;6.05;;;5.00;;
53549;SDS011;67273;52.914;-0.982;2023-06-19T04:59:44;6.32;;;4.88;;
53549;SDS011;67273;52.914;-0.982;2023-06-19T05:02:10;5.55;;;4.70;;
53549;SDS011;67273;52.914;-0.982;2023-06-19T05:04:37;5.50;;;4.72;;
53549;SDS011;67273;52.914;-0.982;2023-06-19T05:07:03;7.13;;;5.45;;
53549;SDS011;67273;52.914;-0.982;2023-06-19T05:09:30;5.88;;;4.93;;
53549;SDS011;67273;52.914;-0.982;2023-06-19T05:11:56;5.60;;;5.00;;
53549;SDS011;67273;52.914;-0.982;2023-06-19T05:14:22;7.78;;;4.95;;
53549;SDS011;67273;52.914;-0.982;2023-06-19T05:16:48;6.32;;;4.65;;
53549;SDS011;67273;52.914;-0.982;2023-06-19T05:19:13;5.72;;;4.68;;
53549;SDS011;67273;52.914;-0.982;2023-06-19T05:21:41;5.75;;;4.50;;
53549;SDS011;67273;52.914;-0.982;2023-06-19T05:24:06;5.32;;;4.53;;
53549;SDS011;67273;52.914;-0.982;2023-06-19T05:26:32;6.20;;;4.63;;
53549;SDS011;67273;52.914;-0.982;2023-06-19T05:28:58;6.32;;;5.03;;
53549;SDS011;67273;52.914;-0.982;2023-06-19T05:31:24;6.57;;;5.00;;
53549;SDS011;67273;52.914;-0.982;2023-06-19T05:33:50;5.07;;;4.20;;
53549;SDS011;67273;52.914;-0.982;2023-06-19T05:36:15;5.95;;;4.80;;
53549;SDS011;67273;52.914;-0.982;2023-06-19T05:38:43;5.30;;;4.47;;
53549;SDS011;67273;52.914;-0.982;2023-06-19T05:41:09;5.13;;;4.30;;
53549;SDS011;67273;52.914;-0.982;2023-06-19T05:43:34;5.85;;;4.32;;
53549;SDS011;67273;52.914;-0.982;2023-06-19T05:46:00;5.53;;;4.50;;
53549;SDS011;67273;52.914;-0.982;2023-06-19T05:48:27;5.70;;;4.45;;
53549;SDS011;67273;52.914;-0.982;2023-06-19T05:50:54;4.72;;;4.10;;
53549;SDS011;67273;52.914;-0.982;2023-06-19T05:53:19;4.97;;;4.40;;
53549;SDS011;67273;52.914;-0.982;2023-06-19T05:55:46;5.10;;;4.15;;
53549;SDS011;67273;52.914;-0.982;2023-06-19T05:58:13;5.60;;;4.40;;
53549;SDS011;67273;52.914;-0.982;2023-06-19T06:00:42;8.68;;;4.45;;
53549;SDS011;67273;52.914;-0.982;2023-06-19T06:03:10;5.35;;;4.43;;
53549;SDS011;67273;52.914;-0.982;2023-06-19T06:05:40;4.85;;;3.78;;
53549;SDS011;67273;52.914;-0.982;2023-06-19T06:08:10;5.45;;;4.30;;
53549;SDS011;67273;52.914;-0.982;2023-06-19T06:10:38;5.10;;;4.18;;
53549;SDS011;67273;52.914;-0.982;2023-06-19T06:13:07;6.40;;;4.55;;
53549;SDS011;67273;52.914;-0.982;2023-06-19T06:15:33;6.95;;;4.30;;
53549;SDS011;67273;52.914;-0.982;2023-06-19T06:18:01;5.22;;;4.18;;
53549;SDS011;67273;52.914;-0.982;2023-06-19T06:20:28;4.82;;;4.00;;
53549;SDS011;67273;52.914;-0.982;2023-06-19T06:22:55;4.63;;;3.88;;
53549;SDS011;67273;52.914;-0.982;2023-06-19T06:25:23;4.57;;;3.72;;
53549;SDS011;67273;52.914;-0.982;2023-06-19T06:27:51;5.13;;;4.05;;
53549;SDS011;67273;52.914;-0.982;2023-06-19T06:30:20;6.43;;;3.70;;
53549;SDS011;67273;52.914;-0.982;2023-06-19T06:32:47;5.35;;;4.15;;
53549;SDS011;67273;52.914;-0.982;2023-06-19T06:35:18;5.65;;;4.20;;
53549;SDS011;67273;52.914;-0.982;2023-06-19T06:37:47;5.15;;;4.00;;
53549;SDS011;67273;52.914;-0.982;2023-06-19T06:40:16;5.32;;;4.25;;
53549;SDS011;67273;52.914;-0.982;2023-06-19T06:42:42;5.45;;;4.18;;
53549;SDS011;67273;52.914;-0.982;2023-06-19T06:45:07;5.85;;;4.18;;
53549;SDS011;67273;52.914;-0.982;2023-06-19T06:47:35;5.18;;;4.05;;
53549;SDS011;67273;52.914;-0.982;2023-06-19T06:50:01;4.95;;;4.13;;
53549;SDS011;67273;52.914;-0.982;2023-06-19T06:52:27;4.85;;;4.03;;
53549;SDS011;67273;52.914;-0.982;2023-06-19T06:54:53;5.90;;;4.47;;
53549;SDS011;67273;52.914;-0.982;2023-06-19T06:57:19;7.55;;;4.43;;
53549;SDS011;67273;52.914;-0.982;2023-06-19T06:59:44;8.20;;;4.60;;
53549;SDS011;67273;52.914;-0.982;2023-06-19T07:02:10;5.00;;;4.13;;
53549;SDS011;67273;52.914;-0.982;2023-06-19T07:04:38;5.15;;;4.28;;
53549;SDS011;67273;52.914;-0.982;2023-06-19T07:07:03;6.55;;;4.28;;
53549;SDS011;67273;52.914;-0.982;2023-06-19T07:09:31;5.28;;;4.07;;
53549;SDS011;67273;52.914;-0.982;2023-06-19T07:11:57;6.22;;;4.50;;
53549;SDS011;67273;52.914;-0.982;2023-06-19T07:14:23;4.90;;;4.22;;
53549;SDS011;67273;52.914;-0.982;2023-06-19T07:16:48;5.55;;;4.03;;
53549;SDS011;67273;52.914;-0.982;2023-06-19T07:19:14;6.90;;;4.25;;
53549;SDS011;67273;52.914;-0.982;2023-06-19T07:21:41;5.72;;;4.20;;
53549;SDS011;67273;52.914;-0.982;2023-06-19T07:24:08;5.70;;;4.38;;
53549;SDS011;67273;52.914;-0.982;2023-06-19T07:26:34;4.82;;;3.83;;
53549;SDS011;67273;52.914;-0.982;2023-06-19T07:29:00;5.50;;;4.07;;
53549;SDS011;67273;52.914;-0.982;2023-06-19T07:31:26;5.10;;;4.00;;
53549;SDS011;67273;52.914;-0.982;2023-06-19T07:33:51;4.68;;;4.03;;
53549;SDS011;67273;52.914;-0.982;2023-06-19T07:36:17;6.88;;;4.10;;
53549;SDS011;67273;52.914;-0.982;2023-06-19T07:38:44;7.95;;;4.30;;
53549;SDS011;67273;52.914;-0.982;2023-06-19T07:41:11;6.00;;;4.18;;
53549;SDS011;67273;52.914;-0.982;2023-06-19T07:43:37;5.70;;;4.50;;
53549;SDS011;67273;52.914;-0.982;2023-06-19T07:46:03;6.13;;;4.10;;
53549;SDS011;67273;52.914;-0.982;2023-06-19T07:48:29;6.47;;;4.50;;
53549;SDS011;67273;52.914;-0.982;2023-06-19T07:50:55;6.68;;;4.40;;
53549;SDS011;67273;52.914;-0.982;2023-06-19T07:53:21;5.90;;;4.40;;
53549;SDS011;67273;52.914;-0.982;2023-06-19T07:55:48;6.28;;;4.45;;
53549;SDS011;67273;52.914;-0.982;2023-06-19T07:58:14;4.97;;;4.13;;
53549;SDS011;67273;52.914;-0.982;2023-06-19T08:00:40;5.25;;;4.50;;
53549;SDS011;67273;52.914;-0.982;2023-06-19T08:03:05;6.30;;;4.25;;
53549;SDS011;67273;52.914;-0.982;2023-06-19T08:05:31;5.60;;;4.60;;
53549;SDS011;67273;52.914;-0.982;2023-06-19T08:07:58;6.05;;;4.35;;
53549;SDS011;67273;52.914;-0.982;2023-06-19T08:10:24;8.82;;;4.70;;
53549;SDS011;67273;52.914;-0.982;2023-06-19T08:12:51;6.10;;;4.60;;
53549;SDS011;67273;52.914;-0.982;2023-06-19T08:15:17;6.05;;;4.88;;
53549;SDS011;67273;52.914;-0.982;2023-06-19T08:17:43;4.72;;;4.07;;
53549;SDS011;67273;52.914;-0.982;2023-06-19T08:20:09;6.15;;;4.82;;
53549;SDS011;67273;52.914;-0.982;2023-06-19T08:22:35;5.63;;;4.50;;
53549;SDS011;67273;52.914;-0.982;2023-06-19T08:25:01;5.10;;;4.45;;
53549;SDS011;67273;52.914;-0.982;2023-06-19T08:27:27;6.63;;;5.00;;
53549;SDS011;67273;52.914;-0.982;2023-06-19T08:29:54;6.43;;;4.65;;
53549;SDS011;67273;52.914;-0.982;2023-06-19T08:32:19;6.00;;;4.80;;
53549;SDS011;67273;52.914;-0.982;2023-06-19T08:34:45;6.25;;;4.78;;
53549;SDS011;67273;52.914;-0.982;2023-06-19T08:37:11;6.13;;;4.53;;
53549;SDS011;67273;52.914;-0.982;2023-06-19T08:39:37;5.60;;;4.30;;
53549;SDS011;67273;52.914;-0.982;2023-06-19T08:42:05;6.55;;;4.85;;
53549;SDS011;67273;52.914;-0.982;2023-06-19T08:44:32;5.78;;;4.68;;
53549;SDS011;67273;52.914;-0.982;2023-06-19T08:47:00;7.38;;;4.95;;
53549;SDS011;67273;52.914;-0.982;2023-06-19T08:49:29;5.80;;;4.65;;
53549;SDS011;67273;52.914;-0.982;2023-06-19T08:51:54;5.93;;;4.72;;
53549;SDS011;67273;52.914;-0.982;2023-06-19T08:54:20;6.28;;;4.40;;
53549;SDS011;67273;52.914;-0.982;2023-06-19T08:56:46;6.32;;;4.80;;
53549;SDS011;67273;52.914;-0.982;2023-06-19T08:59:13;6.70;;;4.80;;
53549;SDS011;67273;52.914;-0.982;2023-06-19T09:01:39;6.18;;;4.80;;
53549;SDS011;67273;52.914;-0.982;2023-06-19T09:04:18;6.88;;;4.88;;
53549;SDS011;67273;52.914;-0.982;2023-06-19T09:06:46;7.00;;;4.85;;
53549;SDS011;67273;52.914;-0.982;2023-06-19T09:09:13;6.75;;;4.65;;
53549;SDS011;67273;52.914;-0.982;2023-06-19T09:11:41;6.35;;;4.75;;
53549;SDS011;67273;52.914;-0.982;2023-06-19T09:14:09;6.45;;;4.85;;
53549;SDS011;67273;52.914;-0.982;2023-06-19T09:16:36;5.93;;;4.47;;
53549;SDS011;67273;52.914;-0.982;2023-06-19T09:19:03;6.28;;;4.72;;
53549;SDS011;67273;52.914;-0.982;2023-06-19T09:21:31;6.28;;;4.53;;
53549;SDS011;67273;52.914;-0.982;2023-06-19T09:24:01;5.25;;;4.20;;
53549;SDS011;67273;52.914;-0.982;2023-06-19T09:26:29;5.85;;;4.68;;
53549;SDS011;67273;52.914;-0.982;2023-06-19T09:28:55;5.55;;;4.35;;
53549;SDS011;67273;52.914;-0.982;2023-06-19T09:31:30;6.15;;;4.78;;
53549;SDS011;67273;52.914;-0.982;2023-06-19T09:33:57;6.90;;;4.80;;
53549;SDS011;67273;52.914;-0.982;2023-06-19T09:36:23;6.25;;;4.57;;
53549;SDS011;67273;52.914;-0.982;2023-06-19T09:38:50;6.00;;;4.57;;
53549;SDS011;67273;52.914;-0.982;2023-06-19T09:41:17;6.53;;;4.65;;
53549;SDS011;67273;52.914;-0.982;2023-06-19T09:43:46;5.25;;;4.30;;
53549;SDS011;67273;52.914;-0.982;2023-06-19T09:46:15;5.68;;;4.28;;
53549;SDS011;67273;52.914;-0.982;2023-06-19T09:48:44;5.63;;;4.05;;
53549;SDS011;67273;52.914;-0.982;2023-06-19T09:51:14;5.80;;;4.22;;
53549;SDS011;67273;52.914;-0.982;2023-06-19T09:53:43;5.38;;;4.45;;
53549;SDS011;67273;52.914;-0.982;2023-06-19T09:56:11;7.28;;;4.35;;
53549;SDS011;67273;52.914;-0.982;2023-06-19T09:58:37;4.60;;;4.10;;
53549;SDS011;67273;52.914;-0.982;2023-06-19T10:01:04;6.22;;;4.38;;
53549;SDS011;67273;52.914;-0.982;2023-06-19T10:03:32;6.30;;;4.47;;
53549;SDS011;67273;52.914;-0.982;2023-06-19T10:05:58;6.80;;;4.55;;
53549;SDS011;67273;52.914;-0.982;2023-06-19T10:08:29;6.28;;;4.63;;
53549;SDS011;67273;52.914;-0.982;2023-06-19T10:10:55;4.70;;;4.20;;
53549;SDS011;67273;52.914;-0.982;2023-06-19T10:13:30;5.95;;;4.35;;
53549;SDS011;67273;52.914;-0.982;2023-06-19T10:15:57;5.80;;;4.03;;
53549;SDS011;67273;52.914;-0.982;2023-06-19T10:18:23;5.25;;;3.90;;
53549;SDS011;67273;52.914;-0.982;2023-06-19T10:20:50;4.95;;;4.18;;
53549;SDS011;67273;52.914;-0.982;2023-06-19T10:23:16;5.85;;;4.20;;
53549;SDS011;67273;52.914;-0.982;2023-06-19T10:25:44;6.07;;;4.45;;
53549;SDS011;67273;52.914;-0.982;2023-06-19T10:28:20;5.22;;;4.20;;
53549;SDS011;67273;52.914;-0.982;2023-06-19T10:30:53;5.40;;;4.03;;
53549;SDS011;67273;52.914;-0.982;2023-06-19T10:33:22;6.22;;;4.18;;
53549;SDS011;67273;52.914;-0.982;2023-06-19T10:35:49;6.75;;;4.28;;
53549;SDS011;67273;52.914;-0.982;2023-06-19T10:38:15;6.40;;;4.07;;
53549;SDS011;67273;52.914;-0.982;2023-06-19T10:40:41;6.65;;;4.45;;
53549;SDS011;67273;52.914;-0.982;2023-06-19T10:43:08;5.38;;;3.80;;
53549;SDS011;67273;52.914;-0.982;2023-06-19T10:45:34;5.35;;;3.80;;
53549;SDS011;67273;52.914;-0.982;2023-06-19T10:48:02;5.15;;;4.05;;
53549;SDS011;67273;52.914;-0.982;2023-06-19T10:50:29;4.57;;;3.65;;
53549;SDS011;67273;52.914;-0.982;2023-06-19T10:52:58;5.40;;;4.00;;
53549;SDS011;67273;52.914;-0.982;2023-06-19T10:55:24;4.45;;;3.47;;
53549;SDS011;67273;52.914;-0.982;2023-06-19T10:57:50;4.95;;;3.85;;
53549;SDS011;67273;52.914;-0.982;2023-06-19T11:00:23;5.05;;;3.80;;
53549;SDS011;67273;52.914;-0.982;2023-06-19T11:02:50;5.05;;;3.70;;
53549;SDS011;67273;52.914;-0.982;2023-06-19T11:05:18;7.05;;;3.65;;
53549;SDS011;67273;52.914;-0.982;2023-06-19T11:07:50;4.72;;;3.55;;
53549;SDS011;67273;52.914;-0.982;2023-06-19T11:10:18;6.35;;;4.00;;
53549;SDS011;67273;52.914;-0.982;2023-06-19T11:12:44;5.80;;;3.95;;
53549;SDS011;67273;52.914;-0.982;2023-06-19T11:15:10;5.47;;;3.80;;
53549;SDS011;67273;52.914;-0.982;2023-06-19T11:17:37;5.05;;;3.75;;
53549;SDS011;67273;52.914;-0.982;2023-06-19T11:20:03;6.15;;;4.28;;
53549;SDS011;67273;52.914;-0.982;2023-06-19T11:22:38;5.88;;;3.92;;
53549;SDS011;67273;52.914;-0.982;2023-06-19T11:25:06;5.13;;;3.92;;
53549;SDS011;67273;52.914;-0.982;2023-06-19T11:27:33;4.82;;;3.50;;
53549;SDS011;67273;52.914;-0.982;2023-06-19T11:30:02;5.93;;;3.78;;
53549;SDS011;67273;52.914;-0.982;2023-06-19T11:32:32;6.68;;;3.78;;
53549;SDS011;67273;52.914;-0.982;2023-06-19T11:35:04;6.15;;;3.90;;
53549;SDS011;67273;52.914;-0.982;2023-06-19T11:37:33;5.70;;;4.13;;
53549;SDS011;67273;52.914;-0.982;2023-06-19T11:40:02;5.40;;;3.70;;
53549;SDS011;67273;52.914;-0.982;2023-06-19T11:42:47;4.60;;;3.42;;
53549;SDS011;67273;52.914;-0.982;2023-06-19T11:45:15;5.18;;;3.58;;
53549;SDS011;67273;52.914;-0.982;2023-06-19T11:47:42;4.90;;;3.47;;
53549;SDS011;67273;52.914;-0.982;2023-06-19T11:50:09;4.65;;;3.22;;
53549;SDS011;67273;52.914;-0.982;2023-06-19T11:52:35;5.13;;;3.65;;
53549;SDS011;67273;52.914;-0.982;2023-06-19T11:55:02;6.47;;;3.50;;
53549;SDS011;67273;52.914;-0.982;2023-06-19T11:57:28;6.07;;;3.42;;
53549;SDS011;67273;52.914;-0.982;2023-06-19T11:59:54;4.65;;;3.25;;
53549;SDS011;67273;52.914;-0.982;2023-06-19T12:02:20;6.22;;;3.95;;
53549;SDS011;67273;52.914;-0.982;2023-06-19T12:04:46;4.47;;;3.63;;
53549;SDS011;67273;52.914;-0.982;2023-06-19T12:07:12;4.68;;;3.50;;
53549;SDS011;67273;52.914;-0.982;2023-06-19T12:09:38;4.78;;;3.17;;
53549;SDS011;67273;52.914;-0.982;2023-06-19T12:12:07;4.63;;;3.63;;
53549;SDS011;67273;52.914;-0.982;2023-06-19T12:14:33;5.50;;;3.70;;
53549;SDS011;67273;52.914;-0.982;2023-06-19T12:16:59;5.35;;;3.67;;
53549;SDS011;67273;52.914;-0.982;2023-06-19T12:19:25;3.95;;;3.00;;
53549;SDS011;67273;52.914;-0.982;2023-06-19T12:21:52;4.95;;;3.10;;
53549;SDS011;67273;52.914;-0.982;2023-06-19T12:24:21;4.25;;;3.30;;
53549;SDS011;67273;52.914;-0.982;2023-06-19T12:26:46;4.55;;;3.25;;
53549;SDS011;67273;52.914;-0.982;2023-06-19T12:29:14;3.95;;;3.03;;
53549;SDS011;67273;52.914;-0.982;2023-06-19T12:31:39;4.22;;;3.35;;
53549;SDS011;67273;52.914;-0.982;2023-06-19T12:34:05;6.43;;;3.60;;
53549;SDS011;67273;52.914;-0.982;2023-06-19T12:36:31;4.85;;;3.33;;
53549;SDS011;67273;52.914;-0.982;2023-06-19T12:38:58;4.45;;;3.20;;
53549;SDS011;67273;52.914;-0.982;2023-06-19T12:41:24;4.38;;;3.10;;
53549;SDS011;67273;52.914;-0.982;2023-06-19T12:43:50;4.65;;;3.13;;
53549;SDS011;67273;52.914;-0.982;2023-06-19T12:46:17;8.77;;;3.55;;
53549;SDS011;67273;52.914;-0.982;2023-06-19T12:48:43;4.85;;;3.30;;
53549;SDS011;67273;52.914;-0.982;2023-06-19T12:51:09;4.95;;;3.20;;
53549;SDS011;67273;52.914;-0.982;2023-06-19T12:53:34;4.50;;;3.13;;
53549;SDS011;67273;52.914;-0.982;2023-06-19T12:56:00;5.78;;;3.03;;
53549;SDS011;67273;52.914;-0.982;2023-06-19T12:58:26;4.40;;;3.25;;
53549;SDS011;67273;52.914;-0.982;2023-06-19T13:00:53;5.05;;;3.40;;
53549;SDS011;67273;52.914;-0.982;2023-06-19T13:03:20;3.65;;;3.15;;
53549;SDS011;67273;52.914;-0.982;2023-06-19T13:05:46;5.32;;;3.17;;
53549;SDS011;67273;52.914;-0.982;2023-06-19T13:08:12;4.85;;;3.40;;
53549;SDS011;67273;52.914;-0.982;2023-06-19T13:10:39;5.10;;;3.17;;
53549;SDS011;67273;52.914;-0.982;2023-06-19T13:13:05;4.57;;;3.45;;
53549;SDS011;67273;52.914;-0.982;2023-06-19T13:15:31;4.63;;;3.10;;
53549;SDS011;67273;52.914;-0.982;2023-06-19T13:17:58;3.95;;;3.00;;
53549;SDS011;67273;52.914;-0.982;2023-06-19T13:20:25;4.15;;;2.92;;
53549;SDS011;67273;52.914;-0.982;2023-06-19T13:22:51;3.70;;;2.78;;
53549;SDS011;67273;52.914;-0.982;2023-06-19T13:25:18;4.80;;;2.88;;
53549;SDS011;67273;52.914;-0.982;2023-06-19T13:27:43;3.67;;;2.92;;
53549;SDS011;67273;52.914;-0.982;2023-06-19T13:30:10;3.30;;;2.85;;
53549;SDS011;67273;52.914;-0.982;2023-06-19T13:32:36;3.63;;;2.75;;
53549;SDS011;67273;52.914;-0.982;2023-06-19T13:35:03;4.32;;;3.38;;
53549;SDS011;67273;52.914;-0.982;2023-06-19T13:37:30;4.30;;;3.10;;
53549;SDS011;67273;52.914;-0.982;2023-06-19T13:39:58;3.88;;;2.85;;
53549;SDS011;67273;52.914;-0.982;2023-06-19T13:42:24;6.45;;;3.28;;
53549;SDS011;67273;52.914;-0.982;2023-06-19T13:44:50;5.20;;;2.78;;
53549;SDS011;67273;52.914;-0.982;2023-06-19T13:47:16;4.22;;;3.00;;
53549;SDS011;67273;52.914;-0.982;2023-06-19T13:49:41;4.30;;;2.80;;
53549;SDS011;67273;52.914;-0.982;2023-06-19T13:52:07;4.13;;;2.90;;
53549;SDS011;67273;52.914;-0.982;2023-06-19T13:54:34;4.20;;;2.85;;
53549;SDS011;67273;52.914;-0.982;2023-06-19T13:57:00;3.33;;;2.90;;
53549;SDS011;67273;52.914;-0.982;2023-06-19T13:59:25;4.15;;;2.70;;
53549;SDS011;67273;52.914;-0.982;2023-06-19T14:01:51;3.83;;;2.70;;
53549;SDS011;67273;52.914;-0.982;2023-06-19T14:04:17;3.55;;;2.95;;
53549;SDS011;67273;52.914;-0.982;2023-06-19T14:06:42;3.40;;;2.88;;
53549;SDS011;67273;52.914;-0.982;2023-06-19T14:09:09;3.67;;;2.65;;
53549;SDS011;67273;52.914;-0.982;2023-06-19T14:11:36;4.10;;;2.92;;
53549;SDS011;67273;52.914;-0.982;2023-06-19T14:14:02;4.18;;;3.15;;
53549;SDS011;67273;52.914;-0.982;2023-06-19T14:16:28;3.60;;;2.65;;
53549;SDS011;67273;52.914;-0.982;2023-06-19T14:18:53;3.85;;;2.85;;
53549;SDS011;67273;52.914;-0.982;2023-06-19T14:21:20;3.90;;;2.70;;
53549;SDS011;67273;52.914;-0.982;2023-06-19T14:23:47;3.70;;;2.80;;
53549;SDS011;67273;52.914;-0.982;2023-06-19T14:26:13;3.90;;;2.85;;
53549;SDS011;67273;52.914;-0.982;2023-06-19T14:28:40;5.07;;;3.00;;
53549;SDS011;67273;52.914;-0.982;2023-06-19T14:31:05;4.90;;;2.92;;